Time;durP1;ratioP1;P1;durP2;ratioP2;P2;SDS_P1;SDS_P2;PMS_P1;PMS_P2;Temp;Humidity;BMP_temperature;BMP_pressure;BME280_temperature;BME280_humidity;BME280_pressure;Samples;Min_cycle;Max_cycle;Signal;HPM_P1;HPM_P2
2024/01/28 00:01:27;;;;;;;9.70;1.90;;;;;;;1.38;100.00;102670.91;5201287;28;20055;-73
2024/01/28 00:03:58;;;;;;;12.10;2.40;;;;;;;1.38;100.00;102663.19;5199990;28;20025;-73
2024/01/28 00:06:28;;;;;;;17.05;2.30;;;;;;;1.34;100.00;102658.72;5204476;28;20029;-73
2024/01/28 00:08:58;;;;;;;12.85;2.03;;;;;;;1.35;100.00;102653.66;5201081;28;20041;-73
2024/01/28 00:11:29;;;;;;;11.77;2.50;;;;;;;1.28;100.00;102655.94;5200391;28;20129;-73
2024/01/28 00:13:59;;;;;;;11.35;2.22;;;;;;;1.37;100.00;102658.88;5199641;28;20112;-73
2024/01/28 00:16:29;;;;;;;7.07;2.05;;;;;;;1.28;100.00;102655.94;5204491;28;20220;-73
2024/01/28 00:19:00;;;;;;;11.48;2.50;;;;;;;1.25;100.00;102651.56;5202544;28;20031;-73
2024/01/28 00:21:30;;;;;;;16.02;2.40;;;;;;;1.27;100.00;102652.47;5199405;28;20036;-73
2024/01/28 00:24:04;;;;;;;16.15;2.50;;;;;;;1.20;100.00;102649.66;5200462;28;20394;-73
2024/01/28 00:26:41;;;;;;;10.77;2.30;;;;;;;1.34;100.00;102644.16;5202168;28;20140;-73
2024/01/28 00:29:11;;;;;;;11.10;2.10;;;;;;;1.21;100.00;102644.56;5202490;28;20028;-73
2024/01/28 00:31:41;;;;;;;9.70;2.22;;;;;;;1.27;100.00;102636.19;5198071;28;20277;-73
2024/01/28 00:34:12;;;;;;;11.13;2.42;;;;;;;1.21;100.00;102647.13;5200166;28;20044;-73
2024/01/28 00:36:43;;;;;;;13.70;2.20;;;;;;;1.12;100.00;102635.63;5199400;28;20112;-73
2024/01/28 00:39:13;;;;;;;9.82;2.08;;;;;;;1.06;100.00;102640.56;5199370;28;20116;-73
2024/01/28 00:41:43;;;;;;;7.07;2.08;;;;;;;1.01;100.00;102652.38;5201988;28;20356;-73
2024/01/28 00:44:14;;;;;;;9.75;2.25;;;;;;;1.27;100.00;102644.75;5199871;28;20095;-72
2024/01/28 00:46:44;;;;;;;10.38;1.90;;;;;;;1.21;100.00;102644.56;5204681;28;20013;-73
2024/01/28 00:49:15;;;;;;;11.20;2.05;;;;;;;1.17;100.00;102640.13;5205077;28;20020;-72
2024/01/28 00:51:45;;;;;;;7.30;2.17;;;;;;;1.07;100.00;102632.88;5196967;28;20021;-73
2024/01/28 00:54:15;;;;;;;12.10;2.17;;;;;;;0.98;100.00;102632.59;5203255;28;20080;-73
2024/01/28 00:56:45;;;;;;;12.38;2.22;;;;;;;0.97;100.00;102632.50;5200289;28;20098;-73
2024/01/28 00:59:16;;;;;;;14.52;2.47;;;;;;;0.96;100.00;102634.22;5197358;28;20033;-73
2024/01/28 01:01:46;;;;;;;18.70;3.13;;;;;;;0.89;100.00;102626.22;5194545;28;20025;-73
2024/01/28 01:04:16;;;;;;;14.85;2.58;;;;;;;0.95;100.00;102632.47;5201588;28;20021;-73
2024/01/28 01:06:46;;;;;;;15.98;2.65;;;;;;;0.97;100.00;102635.97;5204536;28;20543;-73
2024/01/28 01:09:17;;;;;;;10.25;2.42;;;;;;;0.87;100.00;102638.16;5188975;28;20064;-73
2024/01/28 01:11:47;;;;;;;9.98;2.15;;;;;;;0.86;100.00;102633.84;5199986;28;20036;-73
2024/01/28 01:14:18;;;;;;;8.43;2.40;;;;;;;0.86;100.00;102631.28;5203698;28;20025;-73
2024/01/28 01:16:48;;;;;;;11.13;2.40;;;;;;;0.88;100.00;102622.75;5208388;28;20124;-73
2024/01/28 01:19:18;;;;;;;11.60;2.75;;;;;;;0.90;100.00;102627.97;5199901;28;20040;-73
2024/01/28 01:21:50;;;;;;;8.50;2.58;;;;;;;0.97;100.00;102635.97;5202942;28;20098;-73
2024/01/28 01:24:20;;;;;;;11.55;2.42;;;;;;;0.89;100.00;102621.09;5198774;28;20491;-73
2024/01/28 01:26:51;;;;;;;12.45;2.58;;;;;;;0.87;100.00;102628.72;5199884;28;20040;-72
2024/01/28 01:29:22;;;;;;;13.32;2.78;;;;;;;0.90;100.00;102630.56;5196233;28;20106;-73
2024/01/28 01:31:54;;;;;;;12.38;2.53;;;;;;;0.93;100.00;102630.66;5201678;28;20506;-73
2024/01/28 01:34:24;;;;;;;10.75;2.42;;;;;;;0.91;100.00;102624.59;5199995;28;20075;-73
2024/01/28 01:36:54;;;;;;;11.45;2.85;;;;;;;0.92;100.00;102634.06;5202312;28;20029;-73
2024/01/28 01:39:25;;;;;;;14.50;3.13;;;;;;;0.86;100.00;102626.13;5198881;28;20119;-73
2024/01/28 01:41:55;;;;;;;10.13;2.60;;;;;;;0.88;100.00;102620.19;5201130;28;20025;-73
2024/01/28 01:44:26;;;;;;;12.63;2.90;;;;;;;0.92;100.00;102618.63;5199440;28;20064;-74
2024/01/28 01:46:57;;;;;;;9.95;2.72;;;;;;;0.86;100.00;102626.97;5199823;28;20018;-73
2024/01/28 01:49:27;;;;;;;8.85;2.58;;;;;;;0.88;100.00;102627.06;5198482;28;20033;-73
2024/01/28 01:51:58;;;;;;;10.80;2.63;;;;;;;0.78;100.00;102618.13;5201098;28;20026;-73
2024/01/28 01:54:28;;;;;;;9.38;2.25;;;;;;;0.79;100.00;102619.88;5198443;28;20033;-73
2024/01/28 01:56:59;;;;;;;13.52;2.75;;;;;;;0.82;100.00;102619.09;5199381;28;20026;-71
2024/01/28 01:59:30;;;;;;;11.32;2.85;;;;;;;0.81;100.00;102613.09;5199273;28;20060;-73
2024/01/28 02:02:02;;;;;;;12.90;2.63;;;;;;;0.72;100.00;102607.59;5198680;28;20037;-73
2024/01/28 02:04:32;;;;;;;11.60;2.67;;;;;;;0.69;100.00;102606.63;5206765;28;20541;-73
2024/01/28 02:07:02;;;;;;;11.57;2.78;;;;;;;0.72;100.00;102596.44;5202652;28;20391;-73
2024/01/28 02:09:34;;;;;;;9.57;2.80;;;;;;;0.78;100.00;102594.06;5203635;28;20137;-73
2024/01/28 02:12:04;;;;;;;12.18;2.78;;;;;;;0.81;100.00;102592.50;5207100;28;20043;-74
2024/01/28 02:14:35;;;;;;;11.43;2.33;;;;;;;0.75;100.00;102591.41;5206359;28;20033;-74
2024/01/28 02:17:05;;;;;;;6.50;2.45;;;;;;;0.78;100.00;102594.97;5207830;28;20024;-72
2024/01/28 02:19:36;;;;;;;12.82;2.53;;;;;;;0.72;100.00;102592.16;5207590;28;20057;-73
2024/01/28 02:22:06;;;;;;;7.95;2.60;;;;;;;0.75;100.00;102593.97;5209884;28;20237;-73
2024/01/28 02:24:36;;;;;;;10.30;2.95;;;;;;;0.72;100.00;102593.88;5210630;28;20426;-73
2024/01/28 02:27:06;;;;;;;12.38;2.80;;;;;;;0.65;100.00;102595.34;5203799;28;20068;-73
2024/01/28 02:29:37;;;;;;;12.85;2.80;;;;;;;0.66;100.00;102593.63;5202924;28;20097;-73
2024/01/28 02:32:10;;;;;;;9.38;2.47;;;;;;;0.67;100.00;102593.69;5201206;28;20028;-74
2024/01/28 02:34:40;;;;;;;16.13;2.55;;;;;;;0.63;100.00;102594.41;5200903;28;20036;-73
2024/01/28 02:37:11;;;;;;;11.80;2.63;;;;;;;0.65;100.00;102590.19;5199871;28;20021;-73
2024/01/28 02:39:41;;;;;;;14.57;2.60;;;;;;;0.61;100.00;102585.75;5203507;28;20106;-73
2024/01/28 02:42:11;;;;;;;7.72;2.53;;;;;;;0.60;100.00;102586.59;5205906;28;20418;-74
2024/01/28 02:44:42;;;;;;;6.55;2.50;;;;;;;0.60;100.00;102596.88;5204658;28;20037;-73
2024/01/28 02:47:12;;;;;;;8.73;2.58;;;;;;;0.55;100.00;102590.66;5203893;28;20055;-73
2024/01/28 02:49:42;;;;;;;11.50;3.08;;;;;;;0.65;100.00;102579.91;5202603;28;20554;-73
2024/01/28 02:52:13;;;;;;;9.98;2.55;;;;;;;0.66;100.00;102588.47;5209492;28;20040;-73
2024/01/28 02:54:43;;;;;;;8.05;2.22;;;;;;;0.63;100.00;102571.25;5213628;28;20033;-74
2024/01/28 02:57:13;;;;;;;8.45;2.30;;;;;;;0.64;100.00;102575.59;5213319;28;20041;-73
2024/01/28 02:59:43;;;;;;;13.30;2.90;;;;;;;0.57;100.00;102576.16;5213155;28;20036;-74
2024/01/28 03:02:14;;;;;;;7.10;2.33;;;;;;;0.72;100.00;102574.13;5209300;28;20037;-73
2024/01/28 03:04:44;;;;;;;10.45;2.72;;;;;;;0.63;100.00;102578.09;5213573;28;20117;-73
2024/01/28 03:07:15;;;;;;;11.13;3.28;;;;;;;0.58;100.00;102567.63;5208483;28;20036;-73
2024/01/28 03:09:45;;;;;;;9.85;2.88;;;;;;;0.45;100.00;102570.59;5208792;28;20021;-74
2024/01/28 03:12:16;;;;;;;13.80;2.92;;;;;;;0.42;100.00;102562.72;5210399;28;20566;-73
2024/01/28 03:14:46;;;;;;;7.63;2.75;;;;;;;0.48;100.00;102562.09;5212962;28;20127;-73
2024/01/28 03:17:16;;;;;;;8.07;2.45;;;;;;;0.45;100.00;102565.44;5211498;28;20040;-73
2024/01/28 03:19:46;;;;;;;11.43;2.70;;;;;;;0.55;100.00;102557.22;5215178;28;20394;-73
2024/01/28 03:22:17;;;;;;;6.45;2.30;;;;;;;0.51;100.00;102554.47;5213856;28;20037;-73
2024/01/28 03:24:48;;;;;;;12.77;3.15;;;;;;;0.63;100.00;102553.25;5210483;28;20060;-73
2024/01/28 03:27:18;;;;;;;7.75;2.53;;;;;;;0.40;100.00;102556.66;5212120;28;20032;-73
2024/01/28 03:29:49;;;;;;;8.77;2.38;;;;;;;0.45;100.00;102549.13;5214879;28;20017;-73
2024/01/28 03:32:19;;;;;;;10.65;2.65;;;;;;;0.41;100.00;102548.13;5207828;28;20033;-73
2024/01/28 03:34:49;;;;;;;11.57;2.65;;;;;;;0.52;100.00;102546.84;5204341;28;20237;-73
2024/01/28 03:37:20;;;;;;;8.40;2.67;;;;;;;0.53;100.00;102537.44;5202832;28;20517;-74
2024/01/28 03:39:50;;;;;;;13.27;2.67;;;;;;;0.59;100.00;102541.06;5202331;28;20075;-73
2024/01/28 03:42:21;;;;;;;11.32;3.28;;;;;;;0.44;100.00;102542.22;5204863;28;20517;-73
2024/01/28 03:44:52;;;;;;;16.48;3.17;;;;;;;0.54;100.00;102545.19;5201735;28;20021;-72
2024/01/28 03:47:22;;;;;;;12.55;3.00;;;;;;;0.34;100.00;102547.84;5203770;28;20486;-73
2024/01/28 03:49:52;;;;;;;10.18;3.00;;;;;;;0.34;100.00;102548.75;5200721;28;20041;-73
2024/01/28 03:52:23;;;;;;;15.25;3.08;;;;;;;0.40;100.00;102540.38;5203977;28;20032;-73
2024/01/28 03:54:53;;;;;;;12.38;3.30;;;;;;;0.35;100.00;102535.06;5202083;28;20060;-73
2024/01/28 03:57:23;;;;;;;12.90;3.40;;;;;;;0.32;100.00;102540.09;5203092;28;20128;-73
2024/01/28 03:59:54;;;;;;;11.75;3.00;;;;;;;0.31;100.00;102543.50;5209053;28;20032;-73
2024/01/28 04:02:24;;;;;;;15.55;3.35;;;;;;;0.24;100.00;102538.91;5212009;28;20053;-73
2024/01/28 04:04:54;;;;;;;10.63;2.60;;;;;;;0.30;100.00;102539.16;5215122;28;20036;-73
2024/01/28 04:07:24;;;;;;;11.82;3.30;;;;;;;0.43;100.00;102535.34;5212959;28;20044;-73
2024/01/28 04:09:55;;;;;;;14.93;4.45;;;;;;;0.49;100.00;102536.44;5213551;28;20497;-73
2024/01/28 04:12:25;;;;;;;10.38;3.17;;;;;;;0.46;100.00;102533.75;5207584;28;20486;-73
2024/01/28 04:14:55;;;;;;;7.07;2.88;;;;;;;0.42;100.00;102538.72;5209484;28;20029;-73
2024/01/28 04:17:26;;;;;;;13.77;3.40;;;;;;;0.47;100.00;102538.09;5195850;28;20064;-73
2024/01/28 04:19:56;;;;;;;11.48;3.17;;;;;;;0.32;100.00;102534.94;5205668;28;20505;-73
2024/01/28 04:22:27;;;;;;;10.05;3.03;;;;;;;0.24;100.00;102538.91;5206564;28;20029;-73
2024/01/28 04:24:57;;;;;;;10.75;3.30;;;;;;;0.35;100.00;102536.78;5207215;28;20120;-73
2024/01/28 04:27:27;;;;;;;11.43;3.00;;;;;;;0.49;100.00;102531.28;5208944;28;20017;-73
2024/01/28 04:29:57;;;;;;;13.73;3.17;;;;;;;0.52;100.00;102530.53;5209221;28;20027;-73
2024/01/28 04:32:28;;;;;;;14.68;3.40;;;;;;;0.49;100.00;102530.41;5206998;28;20025;-73
2024/01/28 04:34:58;;;;;;;11.52;3.17;;;;;;;0.29;100.00;102527.13;5213706;28;20031;-73
2024/01/28 04:37:29;;;;;;;10.75;2.88;;;;;;;0.25;100.00;102524.38;5212399;28;20032;-73
2024/01/28 04:40:00;;;;;;;12.98;3.15;;;;;;;0.27;100.00;102526.22;5215959;28;20112;-73
2024/01/28 04:42:30;;;;;;;15.32;3.42;;;;;;;0.30;100.00;102521.16;5214215;28;20116;-73
2024/01/28 04:45:01;;;;;;;10.45;3.17;;;;;;;0.42;100.00;102513.88;5209997;28;20033;-72
2024/01/28 04:47:31;;;;;;;8.85;3.50;;;;;;;0.31;100.00;102515.19;5201978;28;20028;-73
2024/01/28 04:50:01;;;;;;;13.70;3.92;;;;;;;0.28;100.00;102521.91;5212625;28;20116;-73
2024/01/28 04:52:32;;;;;;;11.38;3.28;;;;;;;0.31;100.00;102524.59;5214681;28;20401;-73
2024/01/28 04:55:02;;;;;;;12.70;3.55;;;;;;;0.53;100.00;102511.72;5212097;28;20081;-73
2024/01/28 04:57:32;;;;;;;11.95;3.20;;;;;;;0.47;100.00;102506.34;5214299;28;20021;-73
2024/01/28 05:00:05;;;;;;;11.95;2.97;;;;;;;0.26;100.00;102514.16;5210641;28;20034;-73
2024/01/28 05:02:39;;;;;;;11.07;3.10;;;;;;;0.39;100.00;102510.34;5207787;28;20064;-73
2024/01/28 05:05:10;;;;;;;10.43;2.90;;;;;;;0.34;100.00;102517.88;5213526;28;20029;-73
2024/01/28 05:07:40;;;;;;;12.30;2.95;;;;;;;0.26;100.00;102511.59;5212977;28;20083;-73
2024/01/28 05:10:11;;;;;;;14.20;3.17;;;;;;;0.27;100.00;102518.50;5214388;28;20386;-73
2024/01/28 05:12:41;;;;;;;9.77;3.08;;;;;;;0.23;100.00;102516.59;5213648;28;20026;-73
2024/01/28 05:15:17;;;;;;;13.85;2.85;;;;;;;0.14;100.00;102513.72;5210320;28;20029;-73
2024/01/28 05:17:47;;;;;;;9.23;2.83;;;;;;;0.09;100.00;102507.53;5212360;28;20385;-73
2024/01/28 05:20:18;;;;;;;12.98;2.70;;;;;;;0.14;100.00;102507.69;5211487;28;20148;-71
2024/01/28 05:22:48;;;;;;;11.63;3.10;;;;;;;0.24;100.00;102495.22;5204604;28;20526;-73
2024/01/28 05:25:18;;;;;;;7.95;2.90;;;;;;;0.36;100.00;102495.66;5213678;28;20033;-71
2024/01/28 05:27:49;;;;;;;18.25;4.63;;;;;;;0.24;100.00;102492.66;5208209;28;20372;-73
2024/01/28 05:30:19;;;;;;;18.45;3.30;;;;;;;0.32;100.00;102491.25;5214038;28;20024;-72
2024/01/28 05:32:50;;;;;;;10.88;3.03;;;;;;;0.23;100.00;102498.59;5212408;28;20032;-73
2024/01/28 05:35:20;;;;;;;11.90;3.15;;;;;;;0.28;100.00;102502.25;5213949;28;20071;-72
2024/01/28 05:37:51;;;;;;;11.02;3.00;;;;;;;0.39;100.00;102494.91;5211703;28;20029;-73
2024/01/28 05:40:22;;;;;;;13.88;2.83;;;;;;;0.36;100.00;102490.53;5206014;28;20430;-73
2024/01/28 05:42:52;;;;;;;11.10;2.40;;;;;;;0.44;100.00;102495.94;5207148;28;20429;-73
2024/01/28 05:45:22;;;;;;;8.52;2.35;;;;;;;0.38;100.00;102500.88;5208732;28;20025;-73
2024/01/28 05:47:52;;;;;;;11.50;2.50;;;;;;;0.40;100.00;102494.94;5212024;28;20130;-73
2024/01/28 05:50:23;;;;;;;8.95;2.85;;;;;;;0.34;100.00;102499.88;5213560;28;20120;-73
2024/01/28 05:52:53;;;;;;;22.73;7.05;;;;;;;0.33;100.00;102503.28;5198851;28;20029;-72
2024/01/28 05:55:23;;;;;;;16.80;3.55;;;;;;;0.34;100.00;102492.16;5209440;28;20418;-73
2024/01/28 05:57:54;;;;;;;12.20;3.03;;;;;;;0.36;100.00;102497.38;5204125;28;20222;-72
2024/01/28 06:00:24;;;;;;;13.20;3.00;;;;;;;0.38;100.00;102496.59;5202642;28;20386;-73
2024/01/28 06:02:55;;;;;;;13.30;2.75;;;;;;;0.41;100.00;102501.84;5204002;28;20047;-73
2024/01/28 06:05:25;;;;;;;12.18;2.53;;;;;;;0.40;100.00;102502.66;5209546;28;20405;-73
2024/01/28 06:07:55;;;;;;;9.20;2.80;;;;;;;0.35;100.00;102499.06;5215757;28;20029;-73
2024/01/28 06:10:26;;;;;;;11.27;2.55;;;;;;;0.39;100.00;102494.91;5209592;28;20398;-73
2024/01/28 06:12:56;;;;;;;15.10;3.28;;;;;;;0.39;100.00;102495.78;5214958;28;20204;-73
2024/01/28 06:15:27;;;;;;;14.25;3.15;;;;;;;0.48;100.00;102492.66;5211543;28;20028;-74
2024/01/28 06:17:57;;;;;;;12.20;3.00;;;;;;;0.51;100.00;102501.38;5203006;28;20112;-73
2024/01/28 06:20:28;;;;;;;10.38;3.08;;;;;;;0.51;100.00;102495.31;5217383;28;20021;-73
2024/01/28 06:22:58;;;;;;;10.05;2.80;;;;;;;0.64;100.00;102480.41;5212669;28;20036;-73
2024/01/28 06:25:28;;;;;;;20.75;2.83;;;;;;;0.77;100.00;102482.59;5205075;28;20021;-73
2024/01/28 06:27:59;;;;;;;16.30;2.90;;;;;;;0.69;100.00;102489.16;5204695;28;20495;-73
2024/01/28 06:30:32;;;;;;;10.40;2.58;;;;;;;0.59;100.00;102493.91;5200857;28;20098;-73
2024/01/28 06:33:03;;;;;;;7.78;2.60;;;;;;;0.63;100.00;102491.50;5201539;28;20515;-73
2024/01/28 06:35:34;;;;;;;13.02;2.85;;;;;;;0.72;100.00;102499.53;5201963;28;20107;-74
2024/01/28 06:38:04;;;;;;;11.70;2.97;;;;;;;0.60;100.00;102488.84;5203852;28;20052;-73
2024/01/28 06:40:35;;;;;;;12.35;3.60;;;;;;;0.50;100.00;102491.91;5199581;28;20029;-73
2024/01/28 06:43:05;;;;;;;12.07;2.83;;;;;;;0.60;100.00;102488.84;5201797;28;20044;-73
2024/01/28 06:45:36;;;;;;;13.10;3.40;;;;;;;0.66;100.00;102481.31;5204476;28;20021;-73
2024/01/28 06:48:06;;;;;;;12.38;3.58;;;;;;;0.47;100.00;102488.34;5200871;28;20382;-73
2024/01/28 06:50:36;;;;;;;12.73;2.88;;;;;;;0.44;100.00;102493.38;5200710;28;20044;-73
2024/01/28 06:53:06;;;;;;;12.98;3.05;;;;;;;0.46;100.00;102489.16;5202085;28;20029;-73
2024/01/28 06:55:37;;;;;;;10.57;3.08;;;;;;;0.39;100.00;102484.63;5199944;28;20395;-73
2024/01/28 06:58:07;;;;;;;11.32;3.35;;;;;;;0.30;100.00;102485.19;5200495;28;20036;-73
2024/01/28 07:00:37;;;;;;;15.02;3.42;;;;;;;0.30;100.00;102480.03;5201813;28;20668;-73
2024/01/28 07:03:09;;;;;;;14.32;3.22;;;;;;;0.24;100.00;102484.06;5204536;28;20497;-73
2024/01/28 07:05:40;;;;;;;10.50;3.13;;;;;;;0.30;100.00;102490.31;5204558;28;20034;-73
2024/01/28 07:08:10;;;;;;;12.27;3.20;;;;;;;0.30;100.00;102487.75;5205651;28;20408;-73
2024/01/28 07:10:40;;;;;;;12.25;3.20;;;;;;;0.27;100.00;102490.22;5205608;28;20033;-72
2024/01/28 07:13:11;;;;;;;14.88;3.22;;;;;;;0.35;100.00;102485.34;5206872;28;20057;-73
2024/01/28 07:15:41;;;;;;;13.13;3.20;;;;;;;0.43;100.00;102486.47;5202143;28;20121;-73
2024/01/28 07:18:11;;;;;;;13.73;3.40;;;;;;;0.45;100.00;102484.84;5199579;28;20277;-73
2024/01/28 07:20:42;;;;;;;12.35;3.75;;;;;;;0.44;100.00;102486.56;5202058;28;20234;-74
2024/01/28 07:23:12;;;;;;;9.88;2.95;;;;;;;0.49;100.00;102478.97;5200150;28;20091;-73
2024/01/28 07:25:42;;;;;;;14.63;3.95;;;;;;;0.72;100.00;102476.38;5204129;28;20051;-73
2024/01/28 07:28:13;;;;;;;14.27;3.97;;;;;;;0.83;100.00;102471.59;5200330;28;20111;-73
2024/01/28 07:30:43;;;;;;;16.92;3.55;;;;;;;0.85;100.00;102475.09;5200978;28;20033;-73
2024/01/28 07:33:15;;;;;;;12.88;3.20;;;;;;;0.98;100.00;102482.41;5203706;28;20600;-73
2024/01/28 07:35:45;;;;;;;10.35;3.40;;;;;;;0.92;100.00;102477.06;5200154;28;20449;-74
2024/01/28 07:38:16;;;;;;;16.20;3.60;;;;;;;0.90;100.00;102474.44;5204184;28;20030;-73
2024/01/28 07:40:46;;;;;;;10.82;3.25;;;;;;;1.07;100.00;102473.28;5206824;28;20490;-74
2024/01/28 07:43:16;;;;;;;12.40;3.42;;;;;;;1.11;100.00;102462.28;5197860;28;20033;-73
2024/01/28 07:45:47;;;;;;;15.80;3.90;;;;;;;1.01;100.00;102473.09;5202292;28;20759;-73
2024/01/28 07:48:17;;;;;;;10.02;3.38;;;;;;;1.16;100.00;102473.59;5201844;28;20095;-73
2024/01/28 07:50:47;;;;;;;13.85;3.90;;;;;;;1.05;100.00;102474.94;5202223;28;20579;-74
2024/01/28 07:53:18;;;;;;;15.43;3.63;;;;;;;1.21;100.00;102463.47;5200223;28;20458;-74
2024/01/28 07:55:48;;;;;;;14.85;3.80;;;;;;;1.56;100.00;102455.13;5203116;28;20056;-74
2024/01/28 07:58:18;;;;;;;16.63;4.15;;;;;;;1.83;100.00;102451.69;5202029;28;20108;-74
2024/01/28 08:00:49;;;;;;;11.48;3.40;;;;;;;2.36;100.00;102451.50;5202024;28;20029;-74
2024/01/28 08:03:19;;;;;;;17.13;4.05;;;;;;;2.87;100.00;102450.28;5198783;28;20033;-74
2024/01/28 08:05:49;;;;;;;15.25;4.20;;;;;;;4.06;97.32;102442.75;5198982;28;20048;-74
2024/01/28 08:08:20;;;;;;;13.80;2.88;;;;;;;4.98;89.31;102439.31;5202903;28;20467;-74
2024/01/28 08:10:50;;;;;;;8.95;2.72;;;;;;;6.48;84.70;102418.97;5204279;28;20039;-74
2024/01/28 08:13:22;;;;;;;9.40;2.53;;;;;;;7.35;79.63;102418.00;5203166;28;20331;-74
2024/01/28 08:16:01;;;;;;;6.63;2.40;;;;;;;7.84;76.46;102413.09;5203125;28;20495;-74
2024/01/28 08:18:31;;;;;;;8.70;2.92;;;;;;;8.76;74.95;102410.81;5202762;28;20030;-74
2024/01/28 08:21:03;;;;;;;5.00;1.80;;;;;;;8.76;73.86;102414.25;5202807;28;20036;-74
2024/01/28 08:23:34;;;;;;;5.40;2.00;;;;;;;8.78;72.72;102406.47;5202631;28;20108;-74
2024/01/28 08:26:05;;;;;;;10.77;2.33;;;;;;;8.76;71.14;102409.06;5204694;28;20116;-74
2024/01/28 08:28:35;;;;;;;11.45;2.47;;;;;;;9.47;70.15;102402.09;5204288;28;20017;-73
2024/01/28 08:31:06;;;;;;;10.82;2.10;;;;;;;9.38;69.78;102402.09;5198421;28;20079;-74
2024/01/28 08:33:36;;;;;;;9.60;2.20;;;;;;;8.67;69.36;102414.28;5204209;28;20375;-75
2024/01/28 08:36:07;;;;;;;9.73;2.13;;;;;;;9.31;70.00;102410.81;5202926;28;20025;-74
2024/01/28 08:38:37;;;;;;;8.50;2.00;;;;;;;9.09;69.17;102414.28;5203474;28;20493;-75
2024/01/28 08:41:07;;;;;;;11.02;2.72;;;;;;;9.40;69.37;102405.56;5201611;28;20029;-75
2024/01/28 08:43:38;;;;;;;7.88;2.38;;;;;;;10.15;66.70;102406.22;5204164;28;20044;-74
2024/01/28 08:46:08;;;;;;;10.30;2.42;;;;;;;9.97;65.62;102403.66;5200912;28;20552;-74
2024/01/28 08:48:38;;;;;;;9.43;2.17;;;;;;;10.48;65.10;102399.97;5201461;28;20125;-74
2024/01/28 08:51:09;;;;;;;7.30;2.10;;;;;;;10.87;64.80;102400.56;5200278;28;20021;-75
2024/01/28 08:53:42;;;;;;;7.22;1.73;;;;;;;9.95;63.31;102402.81;5199360;28;20029;-74
2024/01/28 08:56:12;;;;;;;8.65;2.08;;;;;;;10.08;63.54;102399.31;5206672;28;20024;-75
2024/01/28 08:58:42;;;;;;;9.95;2.03;;;;;;;9.57;66.98;102401.19;5206157;28;20517;-74
2024/01/28 09:01:13;;;;;;;8.50;2.40;;;;;;;8.33;69.36;102406.38;5202890;28;20029;-74
2024/01/28 09:03:43;;;;;;;8.90;2.00;;;;;;;7.46;73.82;102409.41;5203665;28;20268;-74
2024/01/28 09:06:14;;;;;;;9.27;1.95;;;;;;;6.84;76.89;102419.31;5205403;28;20044;-74
2024/01/28 09:08:44;;;;;;;7.43;2.00;;;;;;;6.35;79.43;102414.47;5204150;28;20029;-74
2024/01/28 09:11:14;;;;;;;12.18;2.33;;;;;;;6.09;81.64;102406.41;5200453;28;20033;-74
2024/01/28 09:13:45;;;;;;;8.52;2.17;;;;;;;5.90;83.37;102409.63;5201909;28;20630;-74
2024/01/28 09:16:15;;;;;;;8.48;1.92;;;;;;;5.99;84.23;102404.56;5201494;28;20037;-74
2024/01/28 09:18:46;;;;;;;8.20;2.38;;;;;;;5.84;84.54;102408.69;5196773;28;20036;-74
2024/01/28 09:21:16;;;;;;;7.53;1.85;;;;;;;5.83;86.20;102412.13;5202308;28;20453;-74
2024/01/28 09:23:47;;;;;;;7.45;2.30;;;;;;;5.66;87.65;102408.41;5197388;28;20028;-74
2024/01/28 09:26:17;;;;;;;15.13;2.40;;;;;;;5.30;88.79;102407.03;5199705;28;20056;-73
2024/01/28 09:28:47;;;;;;;10.38;2.25;;;;;;;5.22;88.50;102406.91;5196081;28;20041;-74
2024/01/28 09:31:18;;;;;;;9.00;2.10;;;;;;;5.13;89.71;102404.16;5192266;28;20543;-74
2024/01/28 09:33:48;;;;;;;11.20;2.20;;;;;;;5.31;90.60;102407.03;5201468;28;20402;-73
2024/01/28 09:36:18;;;;;;;7.82;1.88;;;;;;;5.35;90.41;102403.63;5198152;28;20033;-73
2024/01/28 09:38:49;;;;;;;12.98;1.90;;;;;;;5.40;90.34;102404.59;5200211;28;20047;-73
2024/01/28 09:41:35;;;;;;;7.97;2.55;;;;;;;5.58;90.83;102400.50;5195225;28;20025;-73
2024/01/28 09:44:05;;;;;;;7.82;1.90;;;;;;;5.69;89.68;102408.44;5201165;28;20568;-73
2024/01/28 09:46:36;;;;;;;12.38;2.03;;;;;;;5.66;88.02;102413.59;5208476;28;20021;-74
2024/01/28 09:49:11;;;;;;;11.27;2.35;;;;;;;5.39;87.92;102418.41;5206149;28;20099;-73
2024/01/28 09:51:44;;;;;;;8.90;2.22;;;;;;;5.59;87.31;102406.59;5210313;28;20029;-72
2024/01/28 09:54:14;;;;;;;5.47;1.90;;;;;;;5.44;87.92;102416.75;5205155;28;20029;-74
2024/01/28 09:56:46;;;;;;;13.27;2.22;;;;;;;5.49;88.40;102413.38;5208231;28;20071;-74
2024/01/28 09:59:16;;;;;;;12.43;2.50;;;;;;;5.50;88.78;102409.03;5202663;28;20043;-74
2024/01/28 10:01:47;;;;;;;9.13;2.60;;;;;;;5.50;90.00;102411.63;5203458;28;20021;-74
2024/01/28 10:04:17;;;;;;;9.23;2.22;;;;;;;5.52;89.40;102403.03;5201901;28;20041;-74
2024/01/28 10:06:48;;;;;;;13.77;2.42;;;;;;;5.65;90.37;102402.34;5197739;28;20041;-73
2024/01/28 10:09:19;;;;;;;9.32;3.03;;;;;;;5.57;90.12;102406.56;5198896;28;20041;-74
2024/01/28 10:11:51;;;;;;;10.52;2.45;;;;;;;5.73;90.98;102394.69;5205140;28;20120;-74
2024/01/28 10:14:21;;;;;;;10.25;2.80;;;;;;;5.72;90.44;102393.78;5202558;28;20029;-74
2024/01/28 10:16:53;;;;;;;8.02;2.00;;;;;;;5.82;90.30;102389.63;5205537;28;20086;-74
2024/01/28 10:19:23;;;;;;;7.82;2.10;;;;;;;5.95;89.86;102382.00;5197119;28;20530;-74
2024/01/28 10:21:53;;;;;;;10.70;2.67;;;;;;;6.03;89.02;102370.00;5202130;28;20025;-74
2024/01/28 10:24:24;;;;;;;11.85;2.15;;;;;;;6.06;89.72;102369.19;5205068;28;20130;-74
2024/01/28 10:26:57;;;;;;;14.07;2.67;;;;;;;6.09;88.51;102375.25;5208608;28;20036;-73
2024/01/28 10:29:28;;;;;;;10.07;2.20;;;;;;;6.15;89.48;102382.25;5199710;28;20048;-74
2024/01/28 10:32:01;;;;;;;11.25;2.08;;;;;;;6.14;89.10;102381.38;5205103;28;20021;-73
2024/01/28 10:34:32;;;;;;;9.10;2.53;;;;;;;6.34;90.18;102371.19;5208290;28;20060;-74
2024/01/28 10:37:04;;;;;;;12.32;2.30;;;;;;;6.38;88.80;102378.16;5206600;28;20545;-74
2024/01/28 10:39:37;;;;;;;11.60;2.20;;;;;;;6.40;90.28;102360.91;5208830;28;20044;-74
2024/01/28 10:42:11;;;;;;;9.85;2.17;;;;;;;6.48;89.55;102359.22;5202839;28;20223;-74
2024/01/28 10:44:47;;;;;;;10.15;2.08;;;;;;;6.54;89.01;102354.06;5209044;28;20491;-73
2024/01/28 10:47:18;;;;;;;13.07;2.67;;;;;;;6.46;88.13;102350.56;5206742;28;20586;-73
2024/01/28 10:49:52;;;;;;;7.15;2.55;;;;;;;6.48;88.01;102348.84;5209714;28;20067;-74
2024/01/28 10:52:23;;;;;;;7.88;2.03;;;;;;;6.37;88.15;102347.84;5203832;28;20068;-74
2024/01/28 10:54:55;;;;;;;10.73;2.30;;;;;;;6.47;88.94;102329.81;5205067;28;20024;-73
2024/01/28 10:57:25;;;;;;;8.00;2.15;;;;;;;6.44;90.56;102329.75;5207581;28;20029;-74
2024/01/28 10:59:56;;;;;;;12.50;2.53;;;;;;;6.55;91.65;102324.66;5209510;28;20029;-74
2024/01/28 11:02:28;;;;;;;11.68;2.33;;;;;;;6.55;90.82;102327.25;5202381;28;20108;-73
2024/01/28 11:04:58;;;;;;;11.45;2.00;;;;;;;6.71;90.22;102330.00;5209135;28;20469;-73
2024/01/28 11:07:30;;;;;;;9.25;2.00;;;;;;;6.79;90.27;102330.06;5208037;28;20033;-73
2024/01/28 11:10:01;;;;;;;10.63;2.13;;;;;;;6.89;89.11;102331.84;5210391;28;20114;-74
2024/01/28 11:12:32;;;;;;;10.00;1.80;;;;;;;6.93;89.47;102325.84;5205880;28;20041;-74
2024/01/28 11:15:03;;;;;;;12.57;2.20;;;;;;;6.98;89.44;102331.94;5209196;28;20031;-73
2024/01/28 11:17:34;;;;;;;8.02;2.08;;;;;;;7.09;88.30;102331.16;5201873;28;20033;-74
2024/01/28 11:20:09;;;;;;;9.20;2.10;;;;;;;7.16;87.41;102322.53;5202327;28;20032;-73
2024/01/28 11:22:59;;;;;;;5.80;1.50;;;;;;;7.12;88.58;102319.91;5208095;28;20045;-73
2024/01/28 11:25:30;;;;;;;8.65;1.75;;;;;;;7.34;88.44;102313.09;5201644;28;20301;-74
2024/01/28 11:28:05;;;;;;;9.43;1.77;;;;;;;7.33;86.63;102306.16;5203782;28;20140;-74
2024/01/28 11:30:35;;;;;;;7.65;1.92;;;;;;;7.41;86.62;102299.28;5202817;28;20029;-74
2024/01/28 11:33:14;;;;;;;9.93;1.60;;;;;;;7.39;84.24;102295.78;5203559;28;20037;-74
2024/01/28 11:35:45;;;;;;;9.70;1.85;;;;;;;7.50;85.67;102301.91;5201054;28;20021;-73
2024/01/28 11:38:28;;;;;;;8.40;1.55;;;;;;;7.50;83.35;102299.31;5200574;28;20048;-74